Time;durP1;ratioP1;P1;durP2;ratioP2;P2;SDS_P1;SDS_P2;PMS_P1;PMS_P2;Temp;Humidity;BMP_temperature;BMP_pressure;BME280_temperature;BME280_humidity;BME280_pressure;Samples;Min_cycle;Max_cycle;Signal;HPM_P1;HPM_P2
2021/04/13 00:02:14;;;;;;;5.45;4.40;;;;;;;0.43;84.95;99429.05;239588;1200;23170;-78
2021/04/13 00:07:19;;;;;;;4.17;3.43;;;;;;;0.39;85.51;99431.27;239630;1199;23176;-76
2021/04/13 00:12:26;;;;;;;4.70;3.90;;;;;;;0.38;85.41;99432.31;239366;1198;23269;-77
2021/04/13 00:17:32;;;;;;;4.90;3.90;;;;;;;0.39;85.84;99439.17;239419;1200;23110;-77
2021/04/13 00:22:36;;;;;;;5.00;3.90;;;;;;;0.39;85.44;99441.81;239323;1199;23130;-78
2021/04/13 00:27:39;;;;;;;4.30;3.30;;;;;;;0.37;86.03;99443.06;239188;1200;23272;-77
2021/04/13 00:33:13;;;;;;;4.53;3.30;;;;;;;0.33;86.02;99447.92;239538;1199;23419;-77
2021/04/13 00:38:18;;;;;;;3.27;2.77;;;;;;;0.33;85.95;99445.28;239538;1200;23173;-77
2021/04/13 00:43:26;;;;;;;4.20;3.35;;;;;;;0.31;85.93;99450.76;239401;1199;23116;-77
2021/04/13 00:48:32;;;;;;;3.20;2.30;;;;;;;0.32;85.96;99451.56;239370;1199;23121;-77
2021/04/13 00:53:37;;;;;;;3.60;2.80;;;;;;;0.29;86.40;99450.14;239360;1200;23103;-78
2021/04/13 00:58:55;;;;;;;3.80;3.20;;;;;;;0.31;86.08;99463.14;239398;1199;23118;-77
2021/04/13 01:04:02;;;;;;;4.50;3.80;;;;;;;0.30;86.35;99451.77;239436;1199;23121;-77
2021/04/13 01:09:21;;;;;;;4.43;3.07;;;;;;;0.31;85.73;99455.23;239197;1200;24798;-77
2021/04/13 01:14:26;;;;;;;4.23;3.53;;;;;;;0.33;86.30;99458.46;239617;1198;23501;-77
2021/04/13 01:20:01;;;;;;;4.13;3.33;;;;;;;0.35;85.64;99459.08;239567;1200;23158;-76
2021/04/13 01:25:29;;;;;;;4.15;3.55;;;;;;;0.36;85.96;99458.05;239509;1200;23775;-77
2021/04/13 01:30:44;;;;;;;4.20;3.55;;;;;;;0.40;86.26;99461.09;239655;1199;23336;-77
2021/04/13 01:35:52;;;;;;;6.10;3.40;;;;;;;0.40;85.63;99464.53;239603;1199;23260;-77
2021/04/13 01:46:20;;;;;;;3.85;2.95;;;;;;;0.32;86.02;99465.56;239443;1200;23141;-77
2021/04/13 01:51:23;;;;;;;4.50;3.45;;;;;;;0.31;85.59;99457.87;239548;1198;23118;-77
2021/04/13 01:56:31;;;;;;;4.17;3.63;;;;;;;0.32;86.04;99462.93;239543;1200;23127;-76
2021/04/13 02:01:41;;;;;;;3.90;3.40;;;;;;;0.31;85.67;99471.05;239688;1199;23121;-77
2021/04/13 02:06:50;;;;;;;5.00;3.35;;;;;;;0.26;85.93;99478.74;239401;1200;24181;-77
2021/04/13 02:11:58;;;;;;;4.15;3.30;;;;;;;0.24;86.18;99478.12;239616;1199;23147;-78
2021/04/13 02:17:07;;;;;;;4.23;3.37;;;;;;;0.20;85.92;99477.73;239582;1198;23126;-77
2021/04/13 02:22:15;;;;;;;4.00;3.20;;;;;;;0.21;86.52;99479.36;239662;1199;26230;-77
2021/04/13 02:27:25;;;;;;;3.55;3.10;;;;;;;0.23;86.18;99479.16;239424;1200;24358;-77
2021/04/13 02:32:30;;;;;;;5.17;3.40;;;;;;;0.25;85.93;99488.48;239495;1199;23115;-77
2021/04/13 02:37:39;;;;;;;6.07;3.40;;;;;;;0.28;86.42;99482.80;239240;1199;23135;-77
2021/04/13 02:42:47;;;;;;;5.20;3.70;;;;;;;0.30;86.11;99479.95;239323;1199;26393;-77
2021/04/13 02:47:55;;;;;;;4.10;3.20;;;;;;;0.31;86.03;99474.48;239454;1200;23852;-77
2021/04/13 02:53:02;;;;;;;5.90;4.25;;;;;;;0.32;86.03;99470.01;239693;1202;23277;-77
2021/04/13 02:58:10;;;;;;;6.20;4.35;;;;;;;0.32;86.12;99486.66;239421;1197;23121;-76
2021/04/13 03:03:26;;;;;;;5.30;4.10;;;;;;;0.35;85.91;99488.08;239567;1200;23122;-77
2021/04/13 03:08:37;;;;;;;4.80;4.07;;;;;;;0.39;86.50;99491.09;239380;1199;23124;-78
2021/04/13 03:13:42;;;;;;;5.60;3.23;;;;;;;0.37;86.11;99495.78;239561;1200;23129;-77
2021/04/13 03:18:50;;;;;;;3.30;2.70;;;;;;;0.32;85.73;99496.36;239583;1199;23121;-76
2021/04/13 03:23:57;;;;;;;4.30;2.60;;;;;;;0.26;85.42;99494.55;239470;1200;24770;-76
2021/04/13 03:29:12;;;;;;;3.25;2.40;;;;;;;0.25;85.80;99495.56;239338;1202;23123;-77
2021/04/13 03:34:17;;;;;;;3.60;2.50;;;;;;;0.27;85.64;99499.62;239393;1198;23114;-76
2021/04/13 03:39:27;;;;;;;3.00;2.20;;;;;;;0.27;86.35;99519.91;239488;1198;23132;-76
2021/04/13 03:44:31;;;;;;;3.03;2.07;;;;;;;0.29;86.27;99520.50;239449;1199;23121;-77
2021/04/13 03:49:38;;;;;;;3.73;2.37;;;;;;;0.34;86.09;99521.51;239836;1199;23119;-77
2021/04/13 03:54:41;;;;;;;3.00;2.10;;;;;;;0.39;86.34;99512.98;239392;1200;23195;-76
2021/04/13 03:59:55;;;;;;;3.80;2.40;;;;;;;0.43;86.47;99522.11;239517;1200;25992;-77
2021/04/13 04:05:25;;;;;;;5.27;3.57;;;;;;;0.44;86.04;99513.19;239602;1198;23081;-76
2021/04/13 04:10:46;;;;;;;4.30;3.10;;;;;;;0.46;86.07;99516.45;239689;1199;23120;-75
2021/04/13 04:37:39;;;;;;;3.95;3.20;;;;;;;0.61;85.36;99532.04;239880;1193;23108;-79
2021/04/13 04:43:05;;;;;;;3.73;3.10;;;;;;;0.65;85.66;99540.36;239577;1199;23116;-79
2021/04/13 04:48:34;;;;;;;4.27;3.03;;;;;;;0.68;85.35;99542.59;239570;1199;23118;-79
2021/04/13 04:53:55;;;;;;;3.53;2.57;;;;;;;0.73;85.54;99542.80;239699;1199;23122;-79
2021/04/13 04:59:16;;;;;;;3.83;2.80;;;;;;;0.75;85.85;99539.95;239839;1199;23112;-79
2021/04/13 05:04:37;;;;;;;6.00;2.83;;;;;;;0.75;85.47;99540.75;239419;1199;23270;-79
2021/04/13 05:09:58;;;;;;;4.10;3.40;;;;;;;0.75;85.63;99553.94;240246;1199;23296;-79
2021/04/13 05:15:21;;;;;;;4.35;3.05;;;;;;;0.80;85.64;99551.50;239434;1199;23339;-78
2021/04/13 05:20:42;;;;;;;5.13;3.30;;;;;;;0.84;85.78;99559.83;239186;1200;23122;-78
2021/04/13 05:26:05;;;;;;;4.90;3.60;;;;;;;0.90;85.41;99563.47;239598;1203;23122;-78
2021/04/13 05:31:08;;;;;;;3.83;2.87;;;;;;;0.94;85.86;99560.21;239737;1203;23162;-78
2021/04/13 05:36:11;;;;;;;4.90;3.50;;;;;;;1.00;85.19;99569.93;238777;1200;23131;-78
2021/04/13 05:41:14;;;;;;;5.25;2.90;;;;;;;1.04;85.29;99566.91;238741;1200;23311;-78
2021/04/13 05:46:20;;;;;;;5.30;3.33;;;;;;;1.03;85.04;99566.08;239069;1199;23121;-78
2021/04/13 05:51:22;;;;;;;6.13;3.43;;;;;;;1.05;85.23;99568.50;238998;1200;23115;-77
2021/04/13 05:56:34;;;;;;;4.90;3.45;;;;;;;1.09;85.02;99577.63;238764;1200;23118;-76
2021/04/13 06:01:40;;;;;;;6.70;3.80;;;;;;;1.10;85.66;99582.70;238919;1200;26227;-76
2021/04/13 06:06:43;;;;;;;5.13;3.17;;;;;;;1.18;85.34;99582.48;239079;1200;23135;-78
2021/04/13 06:11:47;;;;;;;4.50;3.40;;;;;;;1.29;85.07;99590.80;239060;1199;23109;-77
2021/04/13 06:16:51;;;;;;;4.23;2.90;;;;;;;1.36;84.95;99581.03;239280;1200;23165;-77
2021/04/13 06:21:56;;;;;;;3.63;2.70;;;;;;;1.41;85.28;99591.75;239380;1199;23255;-79
2021/04/13 06:26:59;;;;;;;7.50;4.20;;;;;;;1.49;85.00;99590.73;239920;1199;23154;-78
2021/04/13 06:32:09;;;;;;;5.17;4.03;;;;;;;1.53;84.61;99595.38;239391;1199;23125;-77
2021/04/13 06:37:13;;;;;;;6.50;4.50;;;;;;;1.63;84.99;99592.30;239485;1199;23266;-78
2021/04/13 06:42:44;;;;;;;4.90;3.60;;;;;;;1.71;84.75;99604.47;239164;1203;23122;-77
2021/04/13 06:48:01;;;;;;;6.17;4.03;;;;;;;1.79;84.81;99614.80;239410;1199;26364;-77
2021/04/13 06:53:30;;;;;;;6.10;4.20;;;;;;;1.95;85.04;99597.64;239022;1199;23145;-76
2021/04/13 06:58:36;;;;;;;5.73;3.47;;;;;;;2.15;84.97;99602.01;239165;1201;23151;-77
2021/04/13 07:03:59;;;;;;;6.33;4.87;;;;;;;2.23;83.72;99607.84;238811;1203;23115;-77
2021/04/13 07:09:41;;;;;;;7.20;4.77;;;;;;;2.30;83.83;99618.38;238906;1200;26169;-77
2021/04/13 07:15:00;;;;;;;5.90;4.30;;;;;;;2.26;83.54;99621.67;238988;1200;23149;-77
2021/04/13 07:20:12;;;;;;;7.05;4.75;;;;;;;2.29;83.56;99631.82;238876;1199;23118;-78
2021/04/13 07:25:20;;;;;;;7.50;6.05;;;;;;;2.28;83.74;99635.48;238816;1200;23201;-78
2021/04/13 07:30:49;;;;;;;11.83;7.03;;;;;;;2.23;83.80;99633.48;238889;1199;26434;-76
2021/04/13 07:35:59;;;;;;;8.07;5.67;;;;;;;2.18;83.37;99636.77;239292;1199;23253;-79
2021/04/13 07:41:27;;;;;;;7.23;5.77;;;;;;;2.25;83.01;99627.98;239149;1200;23129;-75
2021/04/13 07:47:04;;;;;;;5.95;5.05;;;;;;;2.22;83.06;99635.33;238756;1200;23134;-75
2021/04/13 07:52:23;;;;;;;8.00;5.97;;;;;;;2.20;82.69;99632.06;239163;1200;24671;-76
2021/04/13 07:57:26;;;;;;;8.47;3.93;;;;;;;2.20;83.19;99631.27;238962;1199;23098;-77
2021/04/13 08:02:29;;;;;;;8.43;4.90;;;;;;;2.20;83.21;99621.49;238959;1200;23123;-77
2021/04/13 08:07:41;;;;;;;7.25;5.10;;;;;;;2.23;83.48;99625.55;238967;1199;23985;-76
2021/04/13 08:12:52;;;;;;;5.05;4.50;;;;;;;2.26;83.54;99632.25;238741;1200;23251;-76
2021/04/13 08:18:00;;;;;;;7.90;4.63;;;;;;;2.22;82.53;99645.91;238925;1200;23117;-77
2021/04/13 08:23:07;;;;;;;8.10;4.30;;;;;;;2.20;83.26;99644.48;238784;1200;23223;-77
2021/04/13 08:28:40;;;;;;;7.23;5.17;;;;;;;2.22;83.24;99651.19;239184;1199;23121;-76
2021/04/13 08:34:24;;;;;;;5.53;3.33;;;;;;;2.31;83.38;99649.10;239531;1199;23110;-78
2021/04/13 08:39:41;;;;;;;5.00;3.57;;;;;;;2.30;83.75;99644.02;238887;1200;23185;-78
2021/04/13 08:44:50;;;;;;;6.27;3.83;;;;;;;2.28;82.94;99656.63;239032;1199;26025;-78
2021/04/13 08:49:57;;;;;;;7.37;3.57;;;;;;;2.32;83.01;99650.73;238899;1200;23947;-77
2021/04/13 08:55:23;;;;;;;6.53;4.00;;;;;;;2.33;82.95;99660.26;239181;1202;23208;-77
2021/04/13 09:00:48;;;;;;;7.30;4.67;;;;;;;2.43;83.05;99646.58;238786;1199;23185;-76
2021/04/13 09:06:14;;;;;;;7.15;4.10;;;;;;;2.64;83.33;99647.26;238979;1199;23114;-77
2021/04/13 09:11:29;;;;;;;4.80;3.53;;;;;;;2.76;82.67;99648.19;239221;1199;23119;-77
2021/04/13 09:16:37;;;;;;;4.40;3.30;;;;;;;2.80;82.42;99641.45;239339;1200;23090;-78
2021/04/13 09:21:45;;;;;;;4.35;2.90;;;;;;;2.78;82.59;99638.19;239401;1199;23119;-79
2021/04/13 09:27:21;;;;;;;3.15;2.60;;;;;;;2.80;81.85;99633.50;239338;1200;23163;-78
2021/04/13 09:32:27;;;;;;;5.20;3.50;;;;;;;2.76;82.07;99623.55;239670;1199;23140;-77
2021/04/13 09:37:45;;;;;;;6.35;4.70;;;;;;;2.75;82.29;99617.45;239548;1200;23131;-78
2021/04/13 09:43:20;;;;;;;7.67;5.80;;;;;;;2.79;82.50;99610.70;239122;1200;23130;-78
2021/04/13 09:48:54;;;;;;;4.50;3.60;;;;;;;2.90;82.21;99610.00;239164;1203;23110;-79
2021/04/13 09:54:26;;;;;;;3.97;3.53;;;;;;;3.03;82.78;99608.27;240316;1199;23118;-78
2021/04/13 09:59:50;;;;;;;4.57;4.00;;;;;;;3.16;81.94;99605.50;239062;1200;23229;-77
2021/04/13 10:05:26;;;;;;;5.45;3.95;;;;;;;3.32;81.71;99604.11;239296;1199;23138;-78
2021/04/13 10:10:29;;;;;;;5.20;4.20;;;;;;;3.45;81.50;99600.49;239232;1199;23119;-77
2021/04/13 10:15:37;;;;;;;7.10;5.40;;;;;;;3.49;81.56;99588.42;239105;1200;23116;-79
2021/04/13 10:21:04;;;;;;;6.63;5.20;;;;;;;3.47;80.78;99587.03;239973;1200;23118;-77
2021/04/13 10:26:35;;;;;;;8.05;5.20;;;;;;;3.54;81.16;99580.63;239845;1200;23113;-77
2021/04/13 10:32:15;;;;;;;6.73;5.40;;;;;;;3.70;80.89;99586.36;240567;1199;23226;-77
2021/04/13 10:37:52;;;;;;;9.63;6.00;;;;;;;3.82;80.99;99578.45;239760;1200;23108;-78
2021/04/13 10:43:21;;;;;;;9.50;6.93;;;;;;;3.89;80.40;99581.81;239528;1199;26085;-76
2021/04/13 10:48:59;;;;;;;8.67;6.43;;;;;;;4.11;81.03;99584.78;240348;1199;23109;-79
2021/04/13 10:54:27;;;;;;;9.23;6.70;;;;;;;4.15;80.01;99583.30;239378;1199;23132;-79
2021/04/13 10:59:55;;;;;;;8.90;6.67;;;;;;;4.14;79.88;99573.75;239051;1200;24584;-78
2021/04/13 11:05:07;;;;;;;8.13;6.27;;;;;;;4.08;79.89;99566.68;239020;1200;23395;-77
2021/04/13 11:10:45;;;;;;;9.13;6.33;;;;;;;4.09;80.07;99579.71;239016;1199;23183;-78
2021/04/13 11:16:10;;;;;;;9.23;5.87;;;;;;;4.13;79.42;99569.47;239414;1199;23127;-78
2021/04/13 11:21:41;;;;;;;10.10;7.05;;;;;;;4.23;79.22;99579.53;238867;1200;23111;-78
2021/04/13 11:26:50;;;;;;;7.15;5.40;;;;;;;4.28;79.21;99579.64;239136;1199;23118;-77
2021/04/13 11:32:09;;;;;;;7.65;4.80;;;;;;;4.33;78.45;99566.52;238832;1200;24759;-77
2021/04/13 11:37:39;;;;;;;7.80;5.45;;;;;;;4.40;78.55;99571.72;239400;1200;23153;-78
2021/04/13 11:42:43;;;;;;;9.23;5.20;;;;;;;4.42;78.31;99561.67;239134;1199;23115;-77
2021/04/13 11:48:14;;;;;;;8.23;4.77;;;;;;;4.31;77.42;99551.86;238940;1199;26041;-77
2021/04/13 11:53:40;;;;;;;9.45;5.90;;;;;;;4.31;77.85;99560.64;238929;1200;23111;-78
2021/04/13 11:59:17;;;;;;;6.83;5.33;;;;;;;4.45;77.87;99550.63;238952;1200;23134;-77
2021/04/13 12:04:24;;;;;;;9.20;5.20;;;;;;;4.47;76.87;99548.55;239002;1200;24584;-77
2021/04/13 12:09:57;;;;;;;7.50;5.53;;;;;;;4.53;77.47;99536.20;238851;1203;23131;-77
2021/04/13 12:15:07;;;;;;;7.63;5.23;;;;;;;4.44;76.02;99522.48;238727;1203;23121;-77
2021/04/13 12:26:03;;;;;;;6.77;5.10;;;;;;;4.54;76.01;99506.78;238727;1199;23112;-78
2021/04/13 12:31:05;;;;;;;9.10;5.47;;;;;;;4.53;75.57;99509.67;238711;1200;23255;-77
2021/04/13 12:36:10;;;;;;;8.33;6.00;;;;;;;4.38;75.16;99504.80;238833;1202;23105;-78
2021/04/13 12:41:25;;;;;;;13.23;5.83;;;;;;;4.28;75.32;99487.63;238878;1200;23122;-78
2021/04/13 12:46:31;;;;;;;8.97;6.23;;;;;;;4.25;75.65;99492.58;238997;1199;23251;-77
2021/04/13 12:51:49;;;;;;;12.83;7.57;;;;;;;4.31;76.14;99485.55;239333;1199;23148;-79
2021/04/13 12:57:23;;;;;;;12.57;6.17;;;;;;;4.43;75.68;99481.05;239066;1203;23119;-77
2021/04/13 13:02:27;;;;;;;9.53;6.00;;;;;;;4.67;75.99;99479.20;238827;1200;23204;-76
2021/04/13 13:07:31;;;;;;;10.93;6.30;;;;;;;4.84;75.56;99474.02;238878;1199;23114;-77
2021/04/13 13:12:36;;;;;;;8.37;6.47;;;;;;;4.85;74.81;99464.19;239180;1200;23112;-77
2021/04/13 13:17:39;;;;;;;8.10;6.07;;;;;;;4.93;74.78;99466.48;238911;1198;23100;-77
2021/04/13 13:22:51;;;;;;;11.07;6.70;;;;;;;4.96;74.11;99460.70;238852;1200;23124;-78
2021/04/13 13:28:08;;;;;;;10.55;6.25;;;;;;;4.91;74.08;99453.45;238946;1200;23250;-77
2021/04/13 13:33:21;;;;;;;10.87;7.47;;;;;;;4.87;74.35;99451.48;241681;1200;26003;-78
2021/04/13 13:38:24;;;;;;;9.70;7.70;;;;;;;4.87;74.18;99446.99;238864;1202;27210;-77
2021/04/13 13:43:28;;;;;;;11.50;7.00;;;;;;;4.92;74.34;99452.39;238707;1200;23124;-78
2021/04/13 13:48:30;;;;;;;11.75;8.75;;;;;;;4.97;74.42;99433.12;239079;1200;23120;-77
2021/04/13 13:53:48;;;;;;;10.25;7.50;;;;;;;5.05;74.37;99430.09;238853;1200;23135;-78
2021/04/13 13:59:41;;;;;;;10.80;7.50;;;;;;;5.02;73.89;99433.20;239108;1199;23108;-78
2021/04/13 14:04:44;;;;;;;9.43;7.13;;;;;;;5.03;73.99;99423.41;241512;1199;27675;-78
2021/04/13 14:09:47;;;;;;;9.05;7.35;;;;;;;5.01;73.91;99415.67;239239;1203;23101;-77
2021/04/13 14:14:50;;;;;;;12.20;9.20;;;;;;;4.88;73.88;99416.76;238559;1199;23185;-77
2021/04/13 14:20:09;;;;;;;10.40;7.60;;;;;;;4.70;73.80;99411.58;238797;1200;23125;-77
2021/04/13 14:25:26;;;;;;;11.60;7.63;;;;;;;4.45;74.32;99402.06;238643;1200;23295;-77
2021/04/13 14:30:29;;;;;;;10.93;8.97;;;;;;;4.21;74.91;99386.16;238796;1200;23108;-77
2021/04/13 14:35:32;;;;;;;16.10;10.70;;;;;;;4.06;75.81;99380.51;239155;1199;23098;-78
2021/04/13 14:40:35;;;;;;;12.70;9.50;;;;;;;4.05;75.81;99371.73;239306;1199;23138;-77
2021/04/13 14:45:38;;;;;;;14.43;9.87;;;;;;;4.16;76.83;99370.13;238755;1203;23121;-78
2021/04/13 14:50:44;;;;;;;12.00;9.13;;;;;;;4.29;76.73;99369.07;238640;1200;23112;-78
2021/04/13 14:55:47;;;;;;;13.87;10.23;;;;;;;4.36;76.91;99380.36;238571;1200;23115;-77
2021/04/13 15:00:50;;;;;;;15.10;11.63;;;;;;;4.41;76.88;99379.69;238654;1200;23155;-78
2021/04/13 15:05:54;;;;;;;14.30;9.90;;;;;;;4.42;76.47;99383.93;238563;1200;23111;-78
2021/04/13 15:10:59;;;;;;;12.33;9.70;;;;;;;4.33;76.20;99393.30;238738;1200;23128;-78
2021/04/13 15:16:02;;;;;;;14.47;9.90;;;;;;;4.19;75.85;99398.03;238982;1200;27548;-78
2021/04/13 15:21:06;;;;;;;12.03;8.57;;;;;;;4.09;76.64;99415.31;238780;1200;23289;-78
2021/04/13 15:26:10;;;;;;;12.70;8.90;;;;;;;4.06;76.81;99383.16;238402;1199;26130;-78
2021/04/13 15:31:14;;;;;;;14.93;10.30;;;;;;;4.01;76.77;99375.88;238909;1200;23125;-79
2021/04/13 15:36:27;;;;;;;17.80;11.57;;;;;;;4.04;77.23;99370.14;238884;1200;23173;-78
2021/04/13 15:41:34;;;;;;;17.10;11.40;;;;;;;4.10;77.22;99361.25;238829;1199;23163;-78
2021/04/13 15:46:37;;;;;;;14.87;11.10;;;;;;;4.13;77.34;99359.16;238706;1200;26191;-78
2021/04/13 15:51:40;;;;;;;16.90;10.50;;;;;;;4.12;77.45;99334.50;238486;1200;23268;-78
2021/04/13 15:56:47;;;;;;;16.97;11.87;;;;;;;4.09;76.88;99334.97;238777;1199;23125;-78
2021/04/13 16:01:51;;;;;;;15.93;10.67;;;;;;;4.10;77.67;99337.38;238972;1199;25977;-78
2021/04/13 16:06:55;;;;;;;16.60;11.47;;;;;;;4.09;77.32;99334.97;239014;1200;23364;-78
2021/04/13 16:11:58;;;;;;;16.07;11.53;;;;;;;4.03;77.46;99336.70;238937;1200;23144;-79
2021/04/13 16:17:01;;;;;;;16.80;11.10;;;;;;;3.98;76.81;99346.39;238923;1199;23139;-78
2021/04/13 16:22:04;;;;;;;25.67;16.47;;;;;;;3.97;77.08;99336.81;238897;1200;23127;-78
2021/04/13 16:27:08;;;;;;;19.87;13.37;;;;;;;3.92;77.59;99338.31;238995;1199;25981;-78
2021/04/13 16:32:28;;;;;;;16.93;10.50;;;;;;;3.87;77.72;99326.78;238860;1200;23106;-79
2021/04/13 16:37:34;;;;;;;17.73;11.73;;;;;;;3.80;77.58;99334.84;239087;1200;23183;-79
2021/04/13 16:42:45;;;;;;;17.20;11.65;;;;;;;3.73;77.91;99332.30;238906;1199;23146;-78
2021/04/13 16:48:07;;;;;;;20.17;12.07;;;;;;;3.71;78.08;99331.73;238559;1200;23263;-78
2021/04/13 16:53:13;;;;;;;19.53;12.03;;;;;;;3.69;78.75;99330.34;238900;1199;23189;-79
2021/04/13 16:58:16;;;;;;;18.90;11.70;;;;;;;3.67;78.49;99329.78;238864;1200;23104;-78
2021/04/13 17:03:40;;;;;;;17.50;12.10;;;;;;;3.65;78.22;99327.36;238697;1199;23119;-78
2021/04/13 17:09:01;;;;;;;16.50;11.50;;;;;;;3.64;78.56;99322.27;239067;1199;23245;-78
2021/04/13 17:14:35;;;;;;;19.20;11.85;;;;;;;3.62;78.79;99329.66;239008;1200;23132;-78
2021/04/13 17:19:40;;;;;;;20.60;11.97;;;;;;;3.59;79.06;99329.05;238821;1200;23785;-78
2021/04/13 17:24:49;;;;;;;22.03;13.93;;;;;;;3.55;78.97;99325.28;238478;1200;23688;-78
2021/04/13 17:30:32;;;;;;;22.20;14.05;;;;;;;3.55;79.31;99333.23;238514;1200;23145;-77
2021/04/13 17:35:39;;;;;;;24.70;13.90;;;;;;;3.54;79.28;99341.38;238391;1203;23260;-78
2021/04/13 17:40:46;;;;;;;20.80;14.07;;;;;;;3.54;79.05;99339.55;238746;1200;23124;-78
2021/04/13 17:45:49;;;;;;;21.80;12.83;;;;;;;3.54;79.43;99342.20;238797;1199;25974;-78
2021/04/13 17:50:59;;;;;;;18.10;12.27;;;;;;;3.52;79.39;99351.41;238940;1200;23127;-77
2021/04/13 17:56:11;;;;;;;18.70;13.20;;;;;;;3.58;79.79;99355.78;238617;1199;23122;-77
2021/04/13 18:01:14;;;;;;;17.35;11.65;;;;;;;3.62;79.75;99353.50;238718;1200;23122;-78
2021/04/13 18:06:24;;;;;;;16.30;11.25;;;;;;;3.59;80.06;99352.91;239177;1199;23140;-79
2021/04/13 18:11:42;;;;;;;19.10;13.40;;;;;;;3.59;80.25;99360.05;239177;1200;23119;-78
2021/04/13 18:16:54;;;;;;;21.93;14.03;;;;;;;3.59;79.54;99358.20;239101;1200;23209;-79
2021/04/13 18:22:04;;;;;;;21.73;14.57;;;;;;;3.58;79.75;99361.91;238970;1199;23144;-78
2021/04/13 18:27:32;;;;;;;21.60;14.05;;;;;;;3.58;80.36;99364.55;238863;1200;23127;-77
2021/04/13 18:33:07;;;;;;;17.20;13.50;;;;;;;3.59;80.61;99352.91;238480;1200;23110;-78
2021/04/13 18:38:28;;;;;;;26.90;14.63;;;;;;;3.59;80.41;99354.75;238593;1199;24584;-78
2021/04/13 18:43:43;;;;;;;20.95;13.40;;;;;;;3.63;80.73;99360.41;238729;1199;23137;-78
2021/04/13 18:48:56;;;;;;;20.85;14.10;;;;;;;3.65;80.71;99353.03;238522;1203;23275;-78
2021/04/13 18:54:23;;;;;;;20.70;13.70;;;;;;;3.64;80.66;99354.89;238516;1200;23123;-77
2021/04/13 19:00:03;;;;;;;19.30;12.00;;;;;;;3.57;79.97;99349.69;238936;1200;23112;-78
2021/04/13 19:05:09;;;;;;;23.10;13.50;;;;;;;3.53;80.06;99363.63;238379;1200;23132;-77
2021/04/13 19:10:18;;;;;;;18.30;12.53;;;;;;;3.54;80.38;99355.45;238763;1199;24769;-78
2021/04/13 19:15:32;;;;;;;20.33;12.97;;;;;;;3.55;81.04;99353.59;238976;1203;23130;-79
2021/04/13 19:20:49;;;;;;;13.80;8.80;;;;;;;3.47;80.67;99357.39;238712;1199;26172;-78
2021/04/13 19:26:11;;;;;;;10.27;6.90;;;;;;;3.33;80.10;99355.95;238635;1203;26316;-78
2021/04/13 19:31:32;;;;;;;11.40;7.23;;;;;;;3.18;80.31;99351.09;238847;1200;23182;-77
2021/04/13 19:36:40;;;;;;;8.18;5.88;;;;;;;3.06;80.73;99348.39;238762;1200;23213;-77
2021/04/13 19:41:55;;;;;;;10.75;5.85;;;;;;;2.95;80.37;99344.66;238655;1200;23108;-78
2021/04/13 19:47:05;;;;;;;11.03;6.93;;;;;;;2.91;80.85;99349.61;238704;1200;27365;-78
2021/04/13 19:52:14;;;;;;;9.60;5.75;;;;;;;2.86;80.49;99359.25;239043;1200;27323;-78
2021/04/13 19:57:21;;;;;;;8.00;4.93;;;;;;;2.76;80.80;99346.55;238780;1199;23121;-78
2021/04/13 20:02:29;;;;;;;10.27;6.90;;;;;;;2.71;81.06;99347.23;238732;1199;23164;-77
2021/04/13 20:07:38;;;;;;;9.15;6.00;;;;;;;2.71;80.92;99341.11;238571;1203;23153;-78
2021/04/13 20:12:45;;;;;;;9.70;6.20;;;;;;;2.76;80.41;99340.43;238561;1200;23125;-78
2021/04/13 20:17:49;;;;;;;14.50;7.47;;;;;;;2.78;80.85;99336.53;239003;1203;23125;-78
2021/04/13 20:23:05;;;;;;;8.65;6.25;;;;;;;2.83;80.61;99339.33;238900;1199;23115;-78
2021/04/13 20:28:13;;;;;;;8.27;5.43;;;;;;;2.85;80.21;99329.31;238730;1200;23177;-78
2021/04/13 20:33:25;;;;;;;8.93;5.70;;;;;;;2.89;80.76;99327.05;238704;1200;26347;-78
2021/04/13 20:38:40;;;;;;;8.87;5.60;;;;;;;2.90;80.09;99340.05;238726;1200;23128;-80
2021/04/13 20:44:05;;;;;;;9.23;6.47;;;;;;;2.96;80.03;99337.55;238815;1199;24889;-78
2021/04/13 20:49:19;;;;;;;11.00;7.25;;;;;;;3.03;80.40;99339.05;238669;1203;23117;-79
2021/04/13 20:54:31;;;;;;;13.20;7.67;;;;;;;3.10;80.36;99336.33;238849;1200;23166;-78
2021/04/13 20:59:37;;;;;;;10.95;5.55;;;;;;;3.14;80.26;99329.55;239069;1200;23111;-78
2021/04/13 21:04:58;;;;;;;6.50;4.20;;;;;;;3.05;79.47;99337.01;238701;1203;23135;-78
2021/04/13 21:10:06;;;;;;;5.75;3.20;;;;;;;2.92;79.17;99334.53;238385;1200;23128;-78
2021/04/13 21:15:23;;;;;;;4.03;2.80;;;;;;;2.77;79.14;99323.53;238619;1199;23138;-78
2021/04/13 21:20:27;;;;;;;4.00;2.33;;;;;;;2.63;79.30;99318.42;239113;1199;23142;-78
2021/04/13 21:25:36;;;;;;;6.10;2.90;;;;;;;2.59;78.87;99313.78;238591;1199;23131;-77
2021/04/13 21:30:39;;;;;;;5.30;2.90;;;;;;;2.52;79.51;99319.98;238762;1200;23084;-79
2021/04/13 21:35:57;;;;;;;7.70;3.50;;;;;;;2.42;79.18;99332.92;238718;1203;23118;-78
2021/04/13 21:41:08;;;;;;;4.40;2.90;;;;;;;2.27;79.42;99330.63;238680;1199;23125;-79
2021/04/13 21:46:47;;;;;;;4.15;2.50;;;;;;;2.10;79.83;99329.58;238728;1200;23135;-78
2021/04/13 21:51:56;;;;;;;4.13;2.93;;;;;;;1.99;80.22;99328.48;238994;1200;23139;-79
2021/04/13 21:57:32;;;;;;;5.95;3.20;;;;;;;1.91;80.40;99326.13;238725;1202;23146;-77
2021/04/13 22:02:39;;;;;;;3.50;2.95;;;;;;;1.87;81.50;99336.31;238600;1200;23361;-77
2021/04/13 22:07:43;;;;;;;7.10;3.30;;;;;;;1.85;81.01;99327.80;238496;1201;25094;-77
2021/04/13 22:12:47;;;;;;;5.27;3.23;;;;;;;1.83;81.90;99335.13;238509;1200;23148;-79
2021/04/13 22:17:57;;;;;;;9.00;3.30;;;;;;;1.79;81.21;99315.45;238628;1199;23115;-77
2021/04/13 22:23:08;;;;;;;4.15;2.50;;;;;;;1.76;81.77;99310.60;238634;1200;23212;-77
2021/04/13 22:28:25;;;;;;;4.45;2.60;;;;;;;1.73;82.12;99322.41;238529;1198;23313;-78
2021/04/13 22:33:35;;;;;;;6.53;2.37;;;;;;;1.74;81.48;99315.30;238519;1200;23133;-77
2021/04/13 22:38:58;;;;;;;3.30;2.60;;;;;;;1.71;82.45;99312.06;238861;1199;23145;-77
2021/04/13 22:44:06;;;;;;;3.50;2.40;;;;;;;1.67;82.10;99316.16;238758;1200;23117;-77
2021/04/13 22:49:11;;;;;;;6.05;3.50;;;;;;;1.65;82.30;99312.94;238935;1200;23122;-79
2021/04/13 22:54:22;;;;;;;5.27;3.83;;;;;;;1.64;82.76;99313.16;238704;1199;23577;-78
2021/04/13 22:59:34;;;;;;;4.40;2.53;;;;;;;1.59;82.91;99305.86;239046;1199;23130;-78
2021/04/13 23:04:37;;;;;;;3.47;2.50;;;;;;;1.53;82.72;99296.17;239103;1200;23119;-78
2021/04/13 23:09:41;;;;;;;3.37;2.33;;;;;;;1.47;82.96;99302.30;238763;1200;23118;-79
2021/04/13 23:14:44;;;;;;;4.40;2.95;;;;;;;1.42;83.10;99304.80;238477;1200;23134;-78
2021/04/13 23:19:48;;;;;;;4.80;3.00;;;;;;;1.33;82.53;99297.14;238812;1202;23145;-78
2021/04/13 23:24:51;;;;;;;5.75;3.75;;;;;;;1.30;82.95;99284.38;238695;1200;23128;-77
2021/04/13 23:29:53;;;;;;;4.63;3.17;;;;;;;1.24;82.94;99285.22;238689;1200;23121;-78
2021/04/13 23:34:56;;;;;;;4.03;3.40;;;;;;;1.21;83.28;99283.02;238706;1200;27314;-78
2021/04/13 23:39:58;;;;;;;5.63;3.13;;;;;;;1.18;83.11;99276.33;238899;1200;23125;-78
2021/04/13 23:45:01;;;;;;;5.07;3.60;;;;;;;1.14;83.27;99277.78;238805;1200;23120;-78
2021/04/13 23:50:06;;;;;;;7.10;4.60;;;;;;;1.13;83.51;99273.52;238869;1200;23117;-78
2021/04/13 23:55:10;;;;;;;6.47;4.63;;;;;;;1.12;83.76;99271.09;238707;1200;23113;-77
